createdAt,value
2023-02-26T05:07:57.325Z,-1.50
2023-02-26T05:10:26.289Z,-1.50
2023-02-26T05:12:54.586Z,-1.50
2023-02-26T05:15:23.522Z,-1.30
2023-02-26T05:17:51.798Z,-1.50
2023-02-26T05:20:20.053Z,-1.40
2023-02-26T05:22:48.635Z,-1.40
2023-02-26T05:25:21.366Z,-1.40
2023-02-26T05:27:50.137Z,-1.40
2023-02-26T05:30:22.025Z,-1.50
2023-02-26T05:32:51.236Z,-1.60
2023-02-26T05:35:25.151Z,-1.60
2023-02-26T05:37:53.396Z,-1.70
2023-02-26T05:40:23.251Z,-1.80
2023-02-26T05:42:52.063Z,-1.70
2023-02-26T05:45:20.396Z,-1.70
2023-02-26T05:47:50.877Z,-1.70
2023-02-26T05:50:19.610Z,-1.70
2023-02-26T05:52:51.293Z,-1.80
2023-02-26T05:55:24.333Z,-1.80
2023-02-26T05:57:52.697Z,-1.80
2023-02-26T06:00:33.289Z,-1.70
2023-02-26T06:03:01.764Z,-1.80
2023-02-26T06:05:32.378Z,-1.70
2023-02-26T06:08:14.292Z,-1.70
2023-02-26T06:10:46.405Z,-1.90
2023-02-26T06:13:23.772Z,-1.80
2023-02-26T06:15:55.183Z,-1.90
2023-02-26T06:18:23.949Z,-1.90
2023-02-26T06:20:52.197Z,-1.80
2023-02-26T06:23:20.568Z,-1.90
2023-02-26T06:25:53.625Z,-1.90
2023-02-26T06:28:27.247Z,-2.00
2023-02-26T06:30:58.363Z,-2.00
2023-02-26T06:33:26.620Z,-2.00
2023-02-26T06:35:58.034Z,-2.00
2023-02-26T06:38:32.526Z,-2.00
2023-02-26T06:41:02.684Z,-2.00
2023-02-26T06:43:31.033Z,-2.10
2023-02-26T06:46:02.266Z,-2.00
2023-02-26T06:48:31.130Z,-2.00
2023-02-26T06:51:10.015Z,-2.00
2023-02-26T06:53:49.389Z,-2.10
2023-02-26T06:56:29.021Z,-2.00
2023-02-26T06:59:22.805Z,-2.00
2023-02-26T07:01:53.310Z,-1.90
2023-02-26T07:04:24.004Z,-1.90
2023-02-26T07:07:20.483Z,-2.00
2023-02-26T07:09:59.866Z,-1.90
2023-02-26T07:13:03.348Z,-1.90
2023-02-26T07:15:37.935Z,-1.80
2023-02-26T07:18:08.700Z,-1.90
2023-02-26T07:20:39.669Z,-1.90
2023-02-26T07:23:10.770Z,-1.80
2023-02-26T07:25:51.636Z,-1.80
2023-02-26T07:28:25.344Z,-1.70
2023-02-26T07:31:03.024Z,-1.80
2023-02-26T07:33:35.399Z,-1.90
2023-02-26T07:36:07.018Z,-1.90
2023-02-26T07:38:38.411Z,-1.80
2023-02-26T07:41:29.105Z,-1.80
2023-02-26T07:44:02.257Z,-1.70
2023-02-26T07:46:37.961Z,-1.70
2023-02-26T07:49:06.733Z,-1.60
2023-02-26T07:51:58.769Z,-1.60
2023-02-26T07:54:27.883Z,-1.60
2023-02-26T07:57:02.769Z,-1.60
2023-02-26T07:59:40.645Z,-1.60
2023-02-26T08:02:25.743Z,-1.50
2023-02-26T08:08:05.372Z,-1.40
2023-02-26T08:10:41.907Z,-1.40
2023-02-26T08:13:19.053Z,-1.40
2023-02-26T08:15:56.952Z,-1.30
2023-02-26T08:18:36.084Z,-1.30
2023-02-26T08:21:11.937Z,-1.30
2023-02-26T08:27:31.496Z,-1.20
2023-02-26T08:30:09.958Z,-1.10
2023-02-26T08:32:59.184Z,-1.10
2023-02-26T08:35:41.171Z,-1.00
2023-02-26T08:42:11.867Z,-0.80
2023-02-26T08:45:01.310Z,-0.70
2023-02-26T08:47:55.707Z,-0.70
2023-02-26T08:50:47.333Z,-0.60
2023-02-26T08:53:34.469Z,-0.50
2023-02-26T08:56:21.478Z,-0.40
2023-02-26T08:59:06.857Z,-0.30
2023-02-26T09:01:59.606Z,-0.20
2023-02-26T09:08:05.116Z,0.00
2023-02-26T09:10:54.521Z,0.00
2023-02-26T09:13:56.509Z,0.10
2023-02-26T09:16:28.431Z,0.20
2023-02-26T16:49:41.431Z,3.20
2023-02-26T16:52:39.939Z,3.20
2023-02-26T16:55:19.347Z,3.20
2023-02-26T16:57:50.271Z,3.10
2023-02-26T17:00:43.583Z,3.00
2023-02-26T17:03:16.879Z,2.90
2023-02-26T17:05:54.829Z,2.90
2023-02-26T17:08:31.322Z,2.80
2023-02-26T17:11:18.753Z,2.70
2023-02-26T17:13:49.249Z,2.60
2023-02-26T17:16:41.603Z,2.60
2023-02-26T17:19:23.227Z,2.50
2023-02-26T17:22:11.631Z,2.40
2023-02-26T17:24:52.056Z,2.50
2023-02-26T17:30:31.465Z,2.30
2023-02-26T17:33:08.899Z,2.20
2023-02-26T17:35:42.676Z,2.20
2023-02-26T17:38:21.085Z,2.10
2023-02-26T17:40:55.820Z,2.10
2023-02-26T17:43:29.141Z,2.10
2023-02-26T17:46:00.633Z,2.00
2023-02-26T17:48:31.434Z,1.90
2023-02-26T17:51:02.915Z,2.00
2023-02-26T17:53:41.442Z,1.90
2023-02-26T17:56:12.971Z,1.80
2023-02-26T17:58:42.066Z,1.90
2023-02-26T18:01:12.272Z,1.90
2023-02-26T18:03:53.793Z,1.90
2023-02-26T18:06:22.904Z,1.80
2023-02-26T18:09:02.595Z,1.80
2023-02-26T18:11:32.668Z,1.80
2023-02-26T18:14:03.921Z,1.90
2023-02-26T18:16:40.003Z,2.10
2023-02-26T18:19:09.463Z,2.10
2023-02-26T18:24:24.094Z,2.10
2023-02-26T18:26:54.232Z,1.90
2023-02-26T18:29:28.932Z,1.80
2023-02-26T18:31:58.154Z,1.70
2023-02-26T18:34:32.421Z,1.80
2023-02-26T18:37:06.254Z,1.70
2023-02-26T18:39:43.592Z,2.00
2023-02-26T18:42:30.007Z,2.00
2023-02-26T18:45:03.351Z,2.00
2023-02-26T18:47:37.706Z,1.90
2023-02-26T18:50:07.584Z,1.80
2023-02-26T18:52:41.336Z,1.70
2023-02-26T18:55:30.030Z,1.80
2023-02-26T18:58:04.756Z,1.80
2023-02-26T19:00:37.886Z,1.80
2023-02-26T19:03:10.940Z,1.80
2023-02-26T19:05:39.581Z,1.80
2023-02-26T19:08:11.021Z,1.80
2023-02-26T19:10:41.156Z,1.80
2023-02-26T19:13:11.972Z,1.80
2023-02-26T19:15:43.131Z,1.90
2023-02-26T19:18:14.403Z,1.90
2023-02-26T19:20:46.884Z,1.90
2023-02-26T19:23:15.019Z,1.90
2023-02-26T19:25:48.391Z,1.90
2023-02-26T19:28:20.309Z,1.90
2023-02-26T19:31:03.097Z,1.90
2023-02-26T19:33:33.006Z,2.00
2023-02-26T19:36:07.464Z,2.00
2023-02-26T19:38:52.266Z,2.00
2023-02-26T19:41:23.293Z,2.00
2023-02-26T19:43:54.084Z,2.10
2023-02-26T19:46:24.588Z,2.00
2023-02-26T19:48:55.778Z,2.00
2023-02-26T19:51:32.152Z,2.10
2023-02-26T19:54:06.779Z,2.10
2023-02-26T19:56:42.714Z,2.00
2023-02-26T19:59:14.632Z,2.10
2023-02-26T20:01:49.941Z,2.10
2023-02-26T20:04:40.537Z,2.10
2023-02-26T20:10:08.951Z,2.10
2023-02-26T20:12:42.762Z,2.10
2023-02-26T20:15:14.074Z,2.10
2023-02-26T20:17:45.405Z,2.10
2023-02-26T20:20:30.459Z,2.10
2023-02-26T20:23:00.634Z,2.00
2023-02-26T20:25:34.348Z,2.00
2023-02-26T20:28:16.030Z,1.90
2023-02-26T20:30:53.025Z,1.90
2023-02-26T20:33:23.663Z,1.90
2023-02-26T20:35:56.921Z,1.80
2023-02-26T20:38:26.332Z,1.70
2023-02-26T20:40:57.337Z,1.60
2023-02-26T20:43:38.675Z,1.50
2023-02-26T20:46:23.038Z,1.50
2023-02-26T20:49:19.542Z,1.50
2023-02-26T20:55:31.316Z,1.40
2023-02-26T20:58:13.392Z,1.40
2023-02-26T21:01:23.498Z,1.30
2023-02-26T21:04:30.311Z,1.30
2023-02-26T21:10:19.082Z,1.20
2023-02-26T21:12:51.799Z,1.30
2023-02-26T21:18:28.503Z,1.10
2023-02-26T21:21:23.500Z,1.10
2023-02-26T21:24:05.373Z,1.00
2023-02-26T21:26:37.246Z,0.90
2023-02-26T21:29:10.683Z,0.70
2023-02-26T21:32:12.396Z,0.50
2023-02-26T21:34:48.839Z,0.80
2023-02-26T21:37:35.013Z,0.80
2023-02-26T21:41:05.727Z,0.70
2023-02-26T21:44:12.457Z,0.60
2023-02-26T21:46:43.463Z,0.70
2023-02-26T21:52:31.984Z,0.80
2023-02-26T21:55:23.514Z,0.40
2023-02-26T21:58:01.511Z,0.20
2023-02-26T22:00:32.428Z,-0.10
2023-02-26T22:03:21.798Z,-0.30
2023-02-26T22:05:54.517Z,-0.40
2023-02-26T22:08:32.426Z,-0.20
2023-02-26T22:11:06.443Z,-0.20
2023-02-26T22:13:51.119Z,-0.30
2023-02-26T22:16:34.731Z,0.00
2023-02-26T22:22:10.384Z,-0.40
2023-02-26T22:24:47.272Z,-0.10
2023-02-26T22:27:18.712Z,0.00
2023-02-26T22:30:00.861Z,0.00
2023-02-26T22:32:29.702Z,0.00
2023-02-26T22:34:59.990Z,-0.20
2023-02-26T22:37:34.261Z,-0.20
2023-02-26T22:40:27.367Z,-0.30
2023-02-26T22:43:03.183Z,-0.80
2023-02-26T22:45:34.537Z,-0.90
2023-02-26T22:48:04.165Z,-0.70
